sensor_id;sensor_type;location;lat;lon;timestamp;pressure;altitude;pressure_sealevel;temperature;humidity
12757;BME280;31601;48.042;12.240;2023-05-29T00:02:04;96160.22;;;13.31;61.32
12757;BME280;31601;48.042;12.240;2023-05-29T00:04:31;96162.44;;;13.28;61.52
12757;BME280;31601;48.042;12.240;2023-05-29T00:06:57;96161.84;;;13.25;61.67
12757;BME280;31601;48.042;12.240;2023-05-29T00:09:25;96163.06;;;13.23;61.62
12757;BME280;31601;48.042;12.240;2023-05-29T00:11:52;96157.97;;;13.28;61.25
12757;BME280;31601;48.042;12.240;2023-05-29T00:14:18;96154.94;;;13.31;61.07
12757;BME280;31601;48.042;12.240;2023-05-29T00:16:45;96164.69;;;13.31;60.99
12757;BME280;31601;48.042;12.240;2023-05-29T00:19:14;96162.84;;;13.18;60.87
12757;BME280;31601;48.042;12.240;2023-05-29T00:21:42;96160.03;;;13.19;60.88
12757;BME280;31601;48.042;12.240;2023-05-29T00:24:08;96158.00;;;13.15;60.78
12757;BME280;31601;48.042;12.240;2023-05-29T00:26:36;96151.91;;;13.07;61.08
12757;BME280;31601;48.042;12.240;2023-05-29T00:29:03;96149.88;;;13.03;61.42
12757;BME280;31601;48.042;12.240;2023-05-29T00:31:29;96150.44;;;12.85;61.89
12757;BME280;31601;48.042;12.240;2023-05-29T00:33:56;96145.38;;;12.70;62.52
12757;BME280;31601;48.042;12.240;2023-05-29T00:36:23;96145.53;;;12.55;62.06
12757;BME280;31601;48.042;12.240;2023-05-29T00:38:50;96143.31;;;12.65;61.68
12757;BME280;31601;48.042;12.240;2023-05-29T00:41:17;96145.16;;;12.71;61.56
12757;BME280;31601;48.042;12.240;2023-05-29T00:43:44;96151.03;;;12.74;61.42
12757;BME280;31601;48.042;12.240;2023-05-29T00:46:13;96149.84;;;12.76;61.20
12757;BME280;31601;48.042;12.240;2023-05-29T00:48:40;96150.03;;;12.75;60.95
12757;BME280;31601;48.042;12.240;2023-05-29T00:51:10;96150.03;;;12.75;60.95
12757;BME280;31601;48.042;12.240;2023-05-29T00:53:38;96144.13;;;12.72;61.00
12757;BME280;31601;48.042;12.240;2023-05-29T00:56:06;96151.63;;;12.62;61.45
12757;BME280;31601;48.042;12.240;2023-05-29T00:58:33;96146.94;;;12.58;61.44
12757;BME280;31601;48.042;12.240;2023-05-29T01:01:01;96144.66;;;12.34;61.82
12757;BME280;31601;48.042;12.240;2023-05-29T01:03:28;96146.09;;;12.44;61.63
12757;BME280;31601;48.042;12.240;2023-05-29T01:05:57;96151.56;;;12.42;61.82
12757;BME280;31601;48.042;12.240;2023-05-29T01:08:23;96156.38;;;12.39;62.07
12757;BME280;31601;48.042;12.240;2023-05-29T01:10:54;96156.81;;;12.42;62.09
12757;BME280;31601;48.042;12.240;2023-05-29T01:13:26;96154.19;;;12.42;62.18
12757;BME280;31601;48.042;12.240;2023-05-29T01:15:58;96155.00;;;12.43;62.15
12757;BME280;31601;48.042;12.240;2023-05-29T01:18:37;96158.81;;;12.40;62.17
12757;BME280;31601;48.042;12.240;2023-05-29T01:21:08;96161.88;;;12.44;62.29
12757;BME280;31601;48.042;12.240;2023-05-29T01:24:08;96160.44;;;12.41;62.26
12757;BME280;31601;48.042;12.240;2023-05-29T01:26:48;96160.84;;;12.38;62.37
12757;BME280;31601;48.042;12.240;2023-05-29T01:29:18;96156.59;;;12.37;62.39
12757;BME280;31601;48.042;12.240;2023-05-29T01:31:47;96161.03;;;12.36;62.40
12757;BME280;31601;48.042;12.240;2023-05-29T01:34:14;96162.63;;;12.31;62.59
12757;BME280;31601;48.042;12.240;2023-05-29T01:36:40;96165.25;;;12.31;62.53
12757;BME280;31601;48.042;12.240;2023-05-29T01:39:07;96162.63;;;12.31;62.47
12757;BME280;31601;48.042;12.240;2023-05-29T01:41:34;96165.25;;;12.24;62.71
12757;BME280;31601;48.042;12.240;2023-05-29T01:44:04;96169.50;;;12.25;62.89
12757;BME280;31601;48.042;12.240;2023-05-29T01:46:33;96165.63;;;12.21;63.27
12757;BME280;31601;48.042;12.240;2023-05-29T01:49:00;96164.81;;;12.21;63.19
12757;BME280;31601;48.042;12.240;2023-05-29T01:51:27;96158.34;;;12.23;63.17
12757;BME280;31601;48.042;12.240;2023-05-29T01:53:53;96155.03;;;12.08;63.93
12757;BME280;31601;48.042;12.240;2023-05-29T01:56:20;96159.31;;;12.09;63.90
12757;BME280;31601;48.042;12.240;2023-05-29T01:58:48;96160.69;;;12.05;64.26
12757;BME280;31601;48.042;12.240;2023-05-29T02:01:17;96159.69;;;12.06;64.24
12757;BME280;31601;48.042;12.240;2023-05-29T02:03:43;96153.81;;;12.04;64.24
12757;BME280;31601;48.042;12.240;2023-05-29T02:06:10;96160.28;;;12.01;64.09
12757;BME280;31601;48.042;12.240;2023-05-29T02:08:36;96153.56;;;11.98;64.29
12757;BME280;31601;48.042;12.240;2023-05-29T02:11:03;96158.22;;;11.96;64.22
12757;BME280;31601;48.042;12.240;2023-05-29T02:13:29;96163.22;;;11.91;64.27
12757;BME280;31601;48.042;12.240;2023-05-29T02:15:56;96167.25;;;11.87;64.40
12757;BME280;31601;48.042;12.240;2023-05-29T02:18:24;96160.34;;;11.86;64.31
12757;BME280;31601;48.042;12.240;2023-05-29T02:20:50;96165.59;;;11.86;64.39
12757;BME280;31601;48.042;12.240;2023-05-29T02:23:17;96156.50;;;11.82;64.42
12757;BME280;31601;48.042;12.240;2023-05-29T02:25:44;96159.03;;;11.69;64.85
12757;BME280;31601;48.042;12.240;2023-05-29T02:28:11;96159.72;;;11.49;65.20
12757;BME280;31601;48.042;12.240;2023-05-29T02:30:37;96152.50;;;11.58;64.75
12757;BME280;31601;48.042;12.240;2023-05-29T02:33:04;96151.88;;;11.56;64.93
12757;BME280;31601;48.042;12.240;2023-05-29T02:35:33;96153.31;;;11.58;64.74
12757;BME280;31601;48.042;12.240;2023-05-29T02:37:59;96154.75;;;11.61;64.62
12757;BME280;31601;48.042;12.240;2023-05-29T02:40:25;96157.56;;;11.59;64.56
12757;BME280;31601;48.042;12.240;2023-05-29T02:42:52;96149.06;;;11.57;64.67
12757;BME280;31601;48.042;12.240;2023-05-29T02:45:19;96151.22;;;11.47;64.91
12757;BME280;31601;48.042;12.240;2023-05-29T02:47:45;96146.22;;;11.31;65.02
12757;BME280;31601;48.042;12.240;2023-05-29T02:50:11;96150.63;;;11.23;65.19
12757;BME280;31601;48.042;12.240;2023-05-29T02:52:41;96154.41;;;11.14;65.46
12757;BME280;31601;48.042;12.240;2023-05-29T02:55:08;96153.00;;;11.18;65.01
12757;BME280;31601;48.042;12.240;2023-05-29T02:57:34;96153.34;;;11.08;65.44
12757;BME280;31601;48.042;12.240;2023-05-29T03:00:02;96152.63;;;11.21;65.31
12757;BME280;31601;48.042;12.240;2023-05-29T03:02:31;96149.03;;;11.29;65.13
12757;BME280;31601;48.042;12.240;2023-05-29T03:04:58;96148.63;;;11.25;65.24
12757;BME280;31601;48.042;12.240;2023-05-29T03:07:25;96147.63;;;11.26;65.28
12757;BME280;31601;48.042;12.240;2023-05-29T03:09:53;96147.75;;;11.18;65.51
12757;BME280;31601;48.042;12.240;2023-05-29T03:12:20;96150.19;;;11.20;65.42
12757;BME280;31601;48.042;12.240;2023-05-29T03:14:46;96154.25;;;11.22;65.32
12757;BME280;31601;48.042;12.240;2023-05-29T03:17:13;96153.66;;;11.20;65.28
12757;BME280;31601;48.042;12.240;2023-05-29T03:19:40;96151.00;;;11.20;65.45
12757;BME280;31601;48.042;12.240;2023-05-29T03:22:06;96162.28;;;11.14;65.68
12757;BME280;31601;48.042;12.240;2023-05-29T03:24:32;96156.00;;;11.15;65.99
12757;BME280;31601;48.042;12.240;2023-05-29T03:27:01;96155.53;;;11.05;65.86
12757;BME280;31601;48.042;12.240;2023-05-29T03:29:28;96164.81;;;11.07;65.81
12757;BME280;31601;48.042;12.240;2023-05-29T03:31:55;96164.44;;;11.10;65.87
12757;BME280;31601;48.042;12.240;2023-05-29T03:34:22;96167.94;;;11.18;65.51
12757;BME280;31601;48.042;12.240;2023-05-29T03:36:48;96172.03;;;11.20;65.42
12757;BME280;31601;48.042;12.240;2023-05-29T03:39:14;96162.56;;;11.26;65.30
12757;BME280;31601;48.042;12.240;2023-05-29T03:41:41;96175.31;;;11.29;65.20
12757;BME280;31601;48.042;12.240;2023-05-29T03:44:09;96173.75;;;11.35;65.08
12757;BME280;31601;48.042;12.240;2023-05-29T03:46:35;96170.38;;;11.41;65.08
12757;BME280;31601;48.042;12.240;2023-05-29T03:49:02;96171.44;;;11.46;65.03
12757;BME280;31601;48.042;12.240;2023-05-29T03:51:28;96171.47;;;11.53;64.72
12757;BME280;31601;48.042;12.240;2023-05-29T03:53:56;96169.25;;;11.57;64.71
12757;BME280;31601;48.042;12.240;2023-05-29T03:56:22;96172.34;;;11.60;64.68
12757;BME280;31601;48.042;12.240;2023-05-29T03:58:49;96169.53;;;11.62;64.70
12757;BME280;31601;48.042;12.240;2023-05-29T04:01:17;96175.69;;;11.76;64.38
12757;BME280;31601;48.042;12.240;2023-05-29T04:03:43;96177.72;;;11.80;64.42
12757;BME280;31601;48.042;12.240;2023-05-29T04:06:10;96186.06;;;11.91;64.25
12757;BME280;31601;48.042;12.240;2023-05-29T04:08:36;96179.88;;;11.98;63.72
12757;BME280;31601;48.042;12.240;2023-05-29T04:11:03;96185.63;;;11.80;64.11
12757;BME280;31601;48.042;12.240;2023-05-29T04:13:30;96189.28;;;11.86;64.12
12757;BME280;31601;48.042;12.240;2023-05-29T04:15:56;96185.00;;;12.07;63.69
12757;BME280;31601;48.042;12.240;2023-05-29T04:18:24;96189.63;;;12.05;63.67
12757;BME280;31601;48.042;12.240;2023-05-29T04:20:51;96193.66;;;12.00;63.73
12757;BME280;31601;48.042;12.240;2023-05-29T04:23:18;96194.44;;;12.01;63.89
12757;BME280;31601;48.042;12.240;2023-05-29T04:25:45;96191.38;;;12.32;63.21
12757;BME280;31601;48.042;12.240;2023-05-29T04:28:12;96192.41;;;12.31;63.10
12757;BME280;31601;48.042;12.240;2023-05-29T04:30:38;96198.34;;;12.53;62.53
12757;BME280;31601;48.042;12.240;2023-05-29T04:33:07;96191.94;;;12.76;61.92
12757;BME280;31601;48.042;12.240;2023-05-29T04:35:36;96192.34;;;12.80;61.43
12757;BME280;31601;48.042;12.240;2023-05-29T04:38:02;96190.81;;;13.05;61.08
12757;BME280;31601;48.042;12.240;2023-05-29T04:40:30;96187.16;;;13.20;60.96
12757;BME280;31601;48.042;12.240;2023-05-29T04:42:57;96191.25;;;13.36;60.42
12757;BME280;31601;48.042;12.240;2023-05-29T04:45:25;96198.97;;;13.51;60.42
12757;BME280;31601;48.042;12.240;2023-05-29T04:47:53;96194.72;;;13.43;60.34
12757;BME280;31601;48.042;12.240;2023-05-29T04:50:22;96201.81;;;13.83;59.86
12757;BME280;31601;48.042;12.240;2023-05-29T04:52:50;96206.06;;;13.70;59.72
12757;BME280;31601;48.042;12.240;2023-05-29T04:55:16;96195.50;;;13.64;59.61
12757;BME280;31601;48.042;12.240;2023-05-29T04:57:43;96203.63;;;13.62;60.76
12757;BME280;31601;48.042;12.240;2023-05-29T05:00:10;96204.22;;;13.77;59.97
12757;BME280;31601;48.042;12.240;2023-05-29T05:02:40;96206.78;;;14.18;59.14
12757;BME280;31601;48.042;12.240;2023-05-29T05:05:07;96202.22;;;14.51;58.68
12757;BME280;31601;48.042;12.240;2023-05-29T05:07:33;96201.09;;;14.79;58.11
12757;BME280;31601;48.042;12.240;2023-05-29T05:10:01;96203.44;;;15.01;57.18
12757;BME280;31601;48.042;12.240;2023-05-29T05:12:28;96207.06;;;15.07;56.53
12757;BME280;31601;48.042;12.240;2023-05-29T05:14:54;96217.53;;;14.88;57.26
12757;BME280;31601;48.042;12.240;2023-05-29T05:17:21;96212.81;;;14.97;57.25
12757;BME280;31601;48.042;12.240;2023-05-29T05:19:47;96223.94;;;15.06;57.33
12757;BME280;31601;48.042;12.240;2023-05-29T05:22:15;96218.09;;;15.29;56.37
12757;BME280;31601;48.042;12.240;2023-05-29T05:24:42;96216.06;;;15.31;56.73
12757;BME280;31601;48.042;12.240;2023-05-29T05:27:09;96223.28;;;15.74;56.42
12757;BME280;31601;48.042;12.240;2023-05-29T05:29:36;96223.78;;;16.08;55.59
12757;BME280;31601;48.042;12.240;2023-05-29T05:32:03;96224.09;;;16.18;55.39
12757;BME280;31601;48.042;12.240;2023-05-29T05:34:29;96230.72;;;16.27;55.28
12757;BME280;31601;48.042;12.240;2023-05-29T05:36:56;96233.41;;;16.02;55.73
12757;BME280;31601;48.042;12.240;2023-05-29T05:39:22;96231.38;;;16.41;55.04
12757;BME280;31601;48.042;12.240;2023-05-29T05:41:48;96216.94;;;16.74;54.73
12757;BME280;31601;48.042;12.240;2023-05-29T05:44:16;96223.50;;;16.90;54.30
12757;BME280;31601;48.042;12.240;2023-05-29T05:46:43;96227.16;;;17.08;53.71
12757;BME280;31601;48.042;12.240;2023-05-29T05:49:10;96225.22;;;17.15;52.95
12757;BME280;31601;48.042;12.240;2023-05-29T05:51:36;96221.28;;;17.17;52.45
12757;BME280;31601;48.042;12.240;2023-05-29T05:54:03;96225.97;;;17.34;52.16
12757;BME280;31601;48.042;12.240;2023-05-29T05:56:29;96223.09;;;17.35;53.04
12757;BME280;31601;48.042;12.240;2023-05-29T05:58:56;96226.69;;;17.53;53.33
12757;BME280;31601;48.042;12.240;2023-05-29T06:01:24;96221.75;;;17.68;53.14
12757;BME280;31601;48.042;12.240;2023-05-29T06:03:50;96226.38;;;17.73;53.14
12757;BME280;31601;48.042;12.240;2023-05-29T06:06:17;96226.97;;;17.87;52.98
12757;BME280;31601;48.042;12.240;2023-05-29T06:08:43;96228.97;;;18.03;52.91
12757;BME280;31601;48.042;12.240;2023-05-29T06:11:10;96231.16;;;18.18;52.80
12757;BME280;31601;48.042;12.240;2023-05-29T06:13:37;96231.84;;;18.37;52.59
12757;BME280;31601;48.042;12.240;2023-05-29T06:16:04;96234.34;;;18.44;52.42
12757;BME280;31601;48.042;12.240;2023-05-29T06:18:32;96239.66;;;18.56;52.36
12757;BME280;31601;48.042;12.240;2023-05-29T06:20:58;96240.47;;;18.56;51.78
12757;BME280;31601;48.042;12.240;2023-05-29T06:23:25;96240.97;;;18.18;52.46
12757;BME280;31601;48.042;12.240;2023-05-29T06:25:51;96237.41;;;18.00;50.92
12757;BME280;31601;48.042;12.240;2023-05-29T06:28:18;96234.72;;;18.24;49.97
12757;BME280;31601;48.042;12.240;2023-05-29T06:30:44;96239.47;;;18.34;49.65
12757;BME280;31601;48.042;12.240;2023-05-29T06:33:11;96238.78;;;18.79;49.26
12757;BME280;31601;48.042;12.240;2023-05-29T06:35:39;96239.34;;;18.93;49.73
12757;BME280;31601;48.042;12.240;2023-05-29T06:38:05;96241.09;;;18.87;50.66
12757;BME280;31601;48.042;12.240;2023-05-29T06:40:32;96249.00;;;19.11;50.34
12757;BME280;31601;48.042;12.240;2023-05-29T06:42:59;96252.56;;;19.17;49.48
12757;BME280;31601;48.042;12.240;2023-05-29T06:45:26;96255.50;;;19.32;49.33
12757;BME280;31601;48.042;12.240;2023-05-29T06:47:52;96249.81;;;19.11;49.26
12757;BME280;31601;48.042;12.240;2023-05-29T06:50:20;96255.41;;;19.27;49.15
12757;BME280;31601;48.042;12.240;2023-05-29T06:52:48;96260.78;;;19.61;48.48
12757;BME280;31601;48.042;12.240;2023-05-29T06:55:14;96257.38;;;19.77;48.32
12757;BME280;31601;48.042;12.240;2023-05-29T06:57:41;96259.16;;;19.60;48.43
12757;BME280;31601;48.042;12.240;2023-05-29T07:00:08;96260.25;;;19.30;49.58
12757;BME280;31601;48.042;12.240;2023-05-29T07:02:36;96264.41;;;19.55;49.37
12757;BME280;31601;48.042;12.240;2023-05-29T07:05:02;96260.84;;;19.49;50.20
12757;BME280;31601;48.042;12.240;2023-05-29T07:07:29;96261.69;;;19.66;48.46
12757;BME280;31601;48.042;12.240;2023-05-29T07:09:57;96253.81;;;18.85;50.31
12757;BME280;31601;48.042;12.240;2023-05-29T07:12:23;96257.00;;;19.74;49.06
12757;BME280;31601;48.042;12.240;2023-05-29T07:14:50;96265.50;;;20.21;49.16
12757;BME280;31601;48.042;12.240;2023-05-29T07:17:16;96263.97;;;20.26;48.33
12757;BME280;31601;48.042;12.240;2023-05-29T07:19:42;96267.13;;;19.89;48.73
12757;BME280;31601;48.042;12.240;2023-05-29T07:22:09;96259.09;;;19.72;49.65
12757;BME280;31601;48.042;12.240;2023-05-29T07:24:35;96258.66;;;20.09;47.94
12757;BME280;31601;48.042;12.240;2023-05-29T07:27:03;96269.59;;;20.29;48.33
12757;BME280;31601;48.042;12.240;2023-05-29T07:29:30;96263.91;;;20.20;48.28
12757;BME280;31601;48.042;12.240;2023-05-29T07:31:57;96267.25;;;21.16;46.49
12757;BME280;31601;48.042;12.240;2023-05-29T07:34:23;96263.25;;;21.68;45.72
12757;BME280;31601;48.042;12.240;2023-05-29T07:36:57;96258.75;;;22.06;45.25
12757;BME280;31601;48.042;12.240;2023-05-29T07:39:25;96254.06;;;21.54;46.19
12757;BME280;31601;48.042;12.240;2023-05-29T07:41:51;96249.84;;;21.36;46.26
12757;BME280;31601;48.042;12.240;2023-05-29T07:44:19;96258.88;;;21.57;44.85
12757;BME280;31601;48.042;12.240;2023-05-29T07:46:46;96253.81;;;21.55;45.38
12757;BME280;31601;48.042;12.240;2023-05-29T07:49:12;96253.56;;;21.35;45.41
12757;BME280;31601;48.042;12.240;2023-05-29T07:51:39;96254.59;;;21.56;44.99
12757;BME280;31601;48.042;12.240;2023-05-29T07:54:05;96254.72;;;21.17;44.61
12757;BME280;31601;48.042;12.240;2023-05-29T07:56:32;96256.47;;;21.88;44.00
12757;BME280;31601;48.042;12.240;2023-05-29T07:58:59;96257.16;;;21.73;44.65
12757;BME280;31601;48.042;12.240;2023-05-29T08:01:27;96264.72;;;21.32;44.41
12757;BME280;31601;48.042;12.240;2023-05-29T08:03:53;96262.22;;;21.47;44.64
12757;BME280;31601;48.042;12.240;2023-05-29T08:06:20;96257.88;;;21.95;43.62
12757;BME280;31601;48.042;12.240;2023-05-29T08:08:47;96258.47;;;21.43;43.59
12757;BME280;31601;48.042;12.240;2023-05-29T08:11:13;96248.84;;;22.07;42.89
12757;BME280;31601;48.042;12.240;2023-05-29T08:13:40;96264.44;;;21.82;43.90
12757;BME280;31601;48.042;12.240;2023-05-29T08:16:06;96266.84;;;21.29;43.73
12757;BME280;31601;48.042;12.240;2023-05-29T08:18:34;96252.03;;;21.98;43.01
12757;BME280;31601;48.042;12.240;2023-05-29T08:21:01;96259.53;;;22.39;43.42
12757;BME280;31601;48.042;12.240;2023-05-29T08:23:28;96257.53;;;21.87;42.98
12757;BME280;31601;48.042;12.240;2023-05-29T08:25:54;96251.03;;;22.15;43.19
12757;BME280;31601;48.042;12.240;2023-05-29T08:28:21;96252.38;;;22.12;42.42
12757;BME280;31601;48.042;12.240;2023-05-29T08:30:47;96253.00;;;22.73;41.13
12757;BME280;31601;48.042;12.240;2023-05-29T08:33:14;96258.53;;;22.18;42.35
12757;BME280;31601;48.042;12.240;2023-05-29T08:35:42;96259.19;;;21.98;42.99
12757;BME280;31601;48.042;12.240;2023-05-29T08:38:08;96260.19;;;22.62;42.50
12757;BME280;31601;48.042;12.240;2023-05-29T08:40:35;96258.59;;;22.66;42.22
12757;BME280;31601;48.042;12.240;2023-05-29T08:43:06;96257.09;;;22.32;41.25
12757;BME280;31601;48.042;12.240;2023-05-29T08:45:38;96262.09;;;21.91;42.42
12757;BME280;31601;48.042;12.240;2023-05-29T08:48:07;96263.38;;;22.21;42.20
12757;BME280;31601;48.042;12.240;2023-05-29T08:50:35;96262.94;;;22.87;40.78
12757;BME280;31601;48.042;12.240;2023-05-29T08:53:03;96251.47;;;22.87;40.69
12757;BME280;31601;48.042;12.240;2023-05-29T08:55:31;96262.34;;;23.49;40.29
12757;BME280;31601;48.042;12.240;2023-05-29T08:57:58;96257.47;;;23.10;39.26
12757;BME280;31601;48.042;12.240;2023-05-29T09:00:24;96260.66;;;23.12;39.79
12757;BME280;31601;48.042;12.240;2023-05-29T09:02:54;96259.88;;;23.21;40.02
12757;BME280;31601;48.042;12.240;2023-05-29T09:05:20;96254.00;;;23.14;38.68
12757;BME280;31601;48.042;12.240;2023-05-29T09:07:47;96258.00;;;23.12;39.21
12757;BME280;31601;48.042;12.240;2023-05-29T09:10:16;96263.91;;;23.19;38.42
12757;BME280;31601;48.042;12.240;2023-05-29T09:12:42;96260.16;;;23.20;38.91
12757;BME280;31601;48.042;12.240;2023-05-29T09:15:16;96260.28;;;22.87;39.22
12757;BME280;31601;48.042;12.240;2023-05-29T09:17:43;96260.63;;;23.06;40.15
12757;BME280;31601;48.042;12.240;2023-05-29T09:20:14;96258.81;;;22.54;38.47
12757;BME280;31601;48.042;12.240;2023-05-29T09:22:42;96259.78;;;22.38;38.99
12757;BME280;31601;48.042;12.240;2023-05-29T09:25:09;96256.28;;;22.95;38.34
12757;BME280;31601;48.042;12.240;2023-05-29T09:27:39;96258.44;;;22.98;37.85
12757;BME280;31601;48.042;12.240;2023-05-29T09:30:10;96260.97;;;23.31;37.59
12757;BME280;31601;48.042;12.240;2023-05-29T09:32:36;96261.59;;;23.64;38.32
12757;BME280;31601;48.042;12.240;2023-05-29T09:35:03;96259.19;;;23.98;36.82
12757;BME280;31601;48.042;12.240;2023-05-29T09:37:30;96262.41;;;24.00;35.04
12757;BME280;31601;48.042;12.240;2023-05-29T09:39:57;96259.94;;;23.47;34.63
12757;BME280;31601;48.042;12.240;2023-05-29T09:42:24;96259.44;;;23.60;37.79
12757;BME280;31601;48.042;12.240;2023-05-29T09:44:52;96261.56;;;23.58;35.04
12757;BME280;31601;48.042;12.240;2023-05-29T09:47:19;96259.47;;;23.91;35.96
12757;BME280;31601;48.042;12.240;2023-05-29T09:49:46;96259.47;;;24.22;34.69
12757;BME280;31601;48.042;12.240;2023-05-29T09:52:14;96260.44;;;23.34;32.70
12757;BME280;31601;48.042;12.240;2023-05-29T09:54:41;96255.41;;;23.58;32.75
12757;BME280;31601;48.042;12.240;2023-05-29T09:57:10;96250.06;;;23.78;34.20
12757;BME280;31601;48.042;12.240;2023-05-29T09:59:39;96260.28;;;23.92;34.79
12757;BME280;31601;48.042;12.240;2023-05-29T10:02:06;96254.91;;;24.18;34.34
12757;BME280;31601;48.042;12.240;2023-05-29T10:04:36;96263.16;;;24.42;34.15
12757;BME280;31601;48.042;12.240;2023-05-29T10:07:08;96268.25;;;23.66;33.87
12757;BME280;31601;48.042;12.240;2023-05-29T10:09:38;96272.28;;;23.48;34.83
12757;BME280;31601;48.042;12.240;2023-05-29T10:12:08;96263.41;;;23.42;33.10
12757;BME280;31601;48.042;12.240;2023-05-29T10:14:37;96266.88;;;23.33;35.47
12757;BME280;31601;48.042;12.240;2023-05-29T10:17:08;96267.72;;;23.69;33.50
12757;BME280;31601;48.042;12.240;2023-05-29T10:19:36;96256.50;;;23.62;31.48
12757;BME280;31601;48.042;12.240;2023-05-29T10:22:04;96258.38;;;23.72;32.55
12757;BME280;31601;48.042;12.240;2023-05-29T10:24:31;96267.47;;;23.60;34.03
12757;BME280;31601;48.042;12.240;2023-05-29T10:26:58;96250.88;;;23.64;33.05
12757;BME280;31601;48.042;12.240;2023-05-29T10:29:29;96253.03;;;24.13;32.87
12757;BME280;31601;48.042;12.240;2023-05-29T10:32:05;96253.81;;;23.47;32.18
12757;BME280;31601;48.042;12.240;2023-05-29T10:34:41;96249.50;;;23.40;32.79
12757;BME280;31601;48.042;12.240;2023-05-29T10:37:23;96245.25;;;24.06;33.70
12757;BME280;31601;48.042;12.240;2023-05-29T10:40:03;96243.91;;;24.19;33.57
12757;BME280;31601;48.042;12.240;2023-05-29T10:42:44;96252.75;;;23.84;32.71
12757;BME280;31601;48.042;12.240;2023-05-29T10:45:11;96252.22;;;24.23;33.28
12757;BME280;31601;48.042;12.240;2023-05-29T10:48:38;96239.38;;;23.99;33.18
12757;BME280;31601;48.042;12.240;2023-05-29T10:51:08;96245.19;;;24.37;32.33
12757;BME280;31601;48.042;12.240;2023-05-29T10:53:35;96243.09;;;24.19;34.06
12757;BME280;31601;48.042;12.240;2023-05-29T10:56:08;96246.03;;;23.66;33.89
12757;BME280;31601;48.042;12.240;2023-05-29T10:58:36;96250.06;;;23.78;34.15
12757;BME280;31601;48.042;12.240;2023-05-29T11:01:03;96239.38;;;23.99;33.45
12757;BME280;31601;48.042;12.240;2023-05-29T11:03:30;96239.38;;;23.99;31.76
12757;BME280;31601;48.042;12.240;2023-05-29T11:05:58;96235.53;;;24.46;33.03
12757;BME280;31601;48.042;12.240;2023-05-29T11:08:32;96244.97;;;23.72;33.92
12757;BME280;31601;48.042;12.240;2023-05-29T11:10:59;96246.81;;;24.48;34.30
12757;BME280;31601;48.042;12.240;2023-05-29T11:13:27;96243.13;;;24.03;32.88
12757;BME280;31601;48.042;12.240;2023-05-29T11:16:10;96245.69;;;24.65;31.87
12757;BME280;31601;48.042;12.240;2023-05-29T11:18:41;96235.91;;;25.00;31.73
12757;BME280;31601;48.042;12.240;2023-05-29T11:21:27;96235.91;;;25.50;31.30
12757;BME280;31601;48.042;12.240;2023-05-29T11:23:58;96247.75;;;24.94;29.58
12757;BME280;31601;48.042;12.240;2023-05-29T11:26:26;96241.69;;;25.23;31.46
12757;BME280;31601;48.042;12.240;2023-05-29T11:28:53;96238.34;;;25.46;30.08
12757;BME280;31601;48.042;12.240;2023-05-29T11:31:20;96229.22;;;25.47;29.54
12757;BME280;31601;48.042;12.240;2023-05-29T11:33:49;96231.47;;;25.69;29.23
12757;BME280;31601;48.042;12.240;2023-05-29T11:36:18;96236.63;;;25.61;29.01
12757;BME280;31601;48.042;12.240;2023-05-29T11:38:44;96238.47;;;25.26;29.22
12757;BME280;31601;48.042;12.240;2023-05-29T11:41:12;96234.91;;;24.86;29.52
12757;BME280;31601;48.042;12.240;2023-05-29T11:43:39;96241.34;;;25.40;30.21
12757;BME280;31601;48.042;12.240;2023-05-29T11:46:17;96237.59;;;25.75;29.18
12757;BME280;31601;48.042;12.240;2023-05-29T11:48:45;96226.66;;;26.01;29.22
12757;BME280;31601;48.042;12.240;2023-05-29T11:51:12;96223.13;;;26.05;28.50
12757;BME280;31601;48.042;12.240;2023-05-29T11:53:40;96232.13;;;26.44;28.71
12757;BME280;31601;48.042;12.240;2023-05-29T11:56:07;96226.41;;;26.26;27.94
12757;BME280;31601;48.042;12.240;2023-05-29T11:58:37;96226.06;;;26.33;28.28
12757;BME280;31601;48.042;12.240;2023-05-29T12:01:04;96223.81;;;26.16;29.75
12757;BME280;31601;48.042;12.240;2023-05-29T12:03:37;96231.25;;;25.61;28.47
12757;BME280;31601;48.042;12.240;2023-05-29T12:08:31;96226.59;;;25.37;29.69
12757;BME280;31601;48.042;12.240;2023-05-29T12:10:58;96237.66;;;25.20;29.06
12757;BME280;31601;48.042;12.240;2023-05-29T12:13:24;96233.91;;;25.66;29.44
12757;BME280;31601;48.042;12.240;2023-05-29T12:15:53;96227.22;;;25.98;28.87
12757;BME280;31601;48.042;12.240;2023-05-29T12:18:20;96218.94;;;25.54;27.90
12757;BME280;31601;48.042;12.240;2023-05-29T12:20:47;96231.72;;;25.33;28.20
12757;BME280;31601;48.042;12.240;2023-05-29T12:23:13;96224.91;;;24.96;29.58
12757;BME280;31601;48.042;12.240;2023-05-29T12:25:40;96214.41;;;25.50;28.29
12757;BME280;31601;48.042;12.240;2023-05-29T12:28:08;96216.31;;;25.49;29.56
12757;BME280;31601;48.042;12.240;2023-05-29T12:30:37;96211.72;;;25.50;30.63
12757;BME280;31601;48.042;12.240;2023-05-29T12:33:05;96208.06;;;25.35;29.03
12757;BME280;31601;48.042;12.240;2023-05-29T12:35:32;96212.94;;;25.33;31.61
12757;BME280;31601;48.042;12.240;2023-05-29T12:38:00;96220.91;;;24.94;30.59
12757;BME280;31601;48.042;12.240;2023-05-29T12:40:28;96227.81;;;25.10;29.37
12757;BME280;31601;48.042;12.240;2023-05-29T12:42:56;96225.84;;;24.66;29.24
12757;BME280;31601;48.042;12.240;2023-05-29T12:45:24;96219.75;;;25.10;28.59
12757;BME280;31601;48.042;12.240;2023-05-29T12:47:52;96226.03;;;24.90;28.68
12757;BME280;31601;48.042;12.240;2023-05-29T12:50:22;96229.13;;;24.42;28.70
12757;BME280;31601;48.042;12.240;2023-05-29T12:53:00;96226.16;;;24.49;29.50
12757;BME280;31601;48.042;12.240;2023-05-29T12:55:27;96215.63;;;24.73;29.42
12757;BME280;31601;48.042;12.240;2023-05-29T12:57:54;96223.06;;;24.92;29.54